createdAt,value
2018-06-11T00:01:32.160Z,37.80
2018-06-11T00:04:04.759Z,41.07
2018-06-11T00:06:36.153Z,39.20
2018-06-11T00:09:08.415Z,41.60
2018-06-11T00:11:40.410Z,41.80
2018-06-11T00:14:12.535Z,49.30
2018-06-11T00:16:43.741Z,48.07
2018-06-11T00:19:15.596Z,45.23
2018-06-11T00:21:47.353Z,48.87
2018-06-11T00:24:18.781Z,46.13
2018-06-11T00:26:49.895Z,45.27
2018-06-11T00:29:21.929Z,41.70
2018-06-11T00:31:53.999Z,46.20
2018-06-11T00:34:28.205Z,42.57
2018-06-11T00:36:59.537Z,41.20
2018-06-11T00:39:31.644Z,41.20
2018-06-11T00:42:03.605Z,39.50
2018-06-11T00:44:34.831Z,40.73
2018-06-11T00:47:05.935Z,42.80
2018-06-11T00:49:37.729Z,45.03
2018-06-11T00:52:09.361Z,45.73
2018-06-11T00:54:40.666Z,44.77
2018-06-11T00:57:12.075Z,44.87
2018-06-11T00:59:43.932Z,47.00
2018-06-11T01:02:15.217Z,48.23
2018-06-11T01:04:46.387Z,44.37
2018-06-11T01:07:18.980Z,42.63
2018-06-11T01:10:04.764Z,43.50
2018-06-11T01:12:35.316Z,47.03
2018-06-11T01:15:06.536Z,47.07
2018-06-11T01:17:38.378Z,45.23
2018-06-11T01:20:10.038Z,49.47
2018-06-11T01:22:41.201Z,47.97
2018-06-11T01:25:12.473Z,51.63
2018-06-11T01:27:44.568Z,51.33
2018-06-11T01:30:15.978Z,51.57
2018-06-11T01:32:47.332Z,56.13
2018-06-11T01:35:19.950Z,52.80
2018-06-11T01:37:51.904Z,52.77
2018-06-11T01:40:23.384Z,51.83
2018-06-11T01:42:54.709Z,51.40
2018-06-11T01:45:26.730Z,53.53
2018-06-11T01:47:58.814Z,51.17
2018-06-11T01:50:30.718Z,46.37
2018-06-11T01:53:02.069Z,55.07
2018-06-11T01:55:34.055Z,52.23
2018-06-11T01:58:06.106Z,52.80
2018-06-11T02:00:37.311Z,55.20
2018-06-11T02:03:08.728Z,53.00
2018-06-11T02:05:40.641Z,62.37
2018-06-11T02:08:12.113Z,60.90
2018-06-11T02:10:43.338Z,61.97
2018-06-11T02:13:14.566Z,59.97
2018-06-11T02:15:47.256Z,57.87
2018-06-11T02:18:18.628Z,58.50
2018-06-11T02:20:50.037Z,58.87
2018-06-11T02:23:22.069Z,63.47
2018-06-11T02:25:54.172Z,64.40
2018-06-11T02:28:25.521Z,60.43
2018-06-11T02:30:56.931Z,64.03
2018-06-11T02:33:29.653Z,65.50
2018-06-11T02:36:01.545Z,64.00
2018-06-11T02:38:33.284Z,64.73
2018-06-11T02:41:04.657Z,64.20
2018-06-11T02:43:36.636Z,66.20
2018-06-11T02:46:09.072Z,65.87
2018-06-11T02:48:40.223Z,67.37
2018-06-11T02:51:11.381Z,66.30
2018-06-11T02:53:43.575Z,62.10
2018-06-11T02:56:15.720Z,57.60
2018-06-11T02:58:47.094Z,58.93
2018-06-11T03:01:19.097Z,59.60
2018-06-11T03:03:51.002Z,57.07
2018-06-11T03:06:22.284Z,54.77
2018-06-11T03:08:53.516Z,57.00
2018-06-11T03:11:25.372Z,57.37
2018-06-11T03:13:56.976Z,59.43
2018-06-11T03:16:28.458Z,62.50
2018-06-11T03:18:59.728Z,67.73
2018-06-11T03:21:31.512Z,64.67
2018-06-11T03:24:08.449Z,66.47
2018-06-11T03:26:39.865Z,65.37
2018-06-11T03:29:11.232Z,68.00
2018-06-11T03:31:43.452Z,67.83
2018-06-11T03:34:14.649Z,67.20
2018-06-11T03:36:46.029Z,66.43
2018-06-11T03:39:18.128Z,71.50
2018-06-11T03:41:50.005Z,70.47
2018-06-11T03:44:21.287Z,72.37
2018-06-11T03:46:53.324Z,76.47
2018-06-11T03:49:25.816Z,71.73
2018-06-11T03:51:57.677Z,65.50
2018-06-11T03:54:30.430Z,64.90
2018-06-11T03:57:01.676Z,63.37
2018-06-11T03:59:33.520Z,67.53
2018-06-11T04:02:07.662Z,64.13
2018-06-11T04:04:39.962Z,70.77
2018-06-11T04:07:11.296Z,65.93
2018-06-11T04:09:43.205Z,63.13
2018-06-11T04:12:15.438Z,66.00
2018-06-11T04:14:46.786Z,64.53
2018-06-11T04:17:19.222Z,65.20
2018-06-11T04:19:50.940Z,63.87
2018-06-11T04:22:22.258Z,64.03
2018-06-11T04:24:53.714Z,64.20
2018-06-11T04:27:25.830Z,61.03
2018-06-11T04:29:58.098Z,64.37
2018-06-11T04:32:29.766Z,62.47
2018-06-11T04:35:04.642Z,61.83
2018-06-11T04:37:39.949Z,59.20
2018-06-11T04:40:14.158Z,59.37
2018-06-11T04:42:45.690Z,62.70
2018-06-11T04:45:17.866Z,66.80
2018-06-11T04:47:50.010Z,66.33
2018-06-11T04:50:21.235Z,69.43
2018-06-11T04:52:53.502Z,68.13
2018-06-11T04:55:25.868Z,66.80
2018-06-11T04:57:58.050Z,66.47
2018-06-11T05:00:28.444Z,64.10
2018-06-11T05:03:01.302Z,63.53
2018-06-11T05:05:33.296Z,61.10
2018-06-11T05:08:06.736Z,62.03
2018-06-11T05:10:39.160Z,64.17
2018-06-11T05:13:10.796Z,63.43
2018-06-11T05:15:43.598Z,63.77
2018-06-11T05:18:15.780Z,59.93
2018-06-11T05:20:47.195Z,59.37
2018-06-11T05:23:19.408Z,61.20
2018-06-11T05:25:54.406Z,58.07
2018-06-11T05:28:25.972Z,55.77
2018-06-11T05:30:58.654Z,57.90
2018-06-11T05:33:31.720Z,58.17
2018-06-11T05:36:03.926Z,57.43
2018-06-11T05:38:35.719Z,51.73
2018-06-11T05:41:07.763Z,48.50
2018-06-11T05:43:39.964Z,50.13
2018-06-11T05:46:12.078Z,52.45
2018-06-11T05:48:43.718Z,55.17
2018-06-11T05:51:16.757Z,52.27
2018-06-11T05:53:49.362Z,52.35
2018-06-11T05:56:20.981Z,54.67
2018-06-11T05:58:52.557Z,52.57
2018-06-11T06:01:24.739Z,52.95
2018-06-11T06:03:58.235Z,54.43
2018-06-11T06:06:29.720Z,53.83
2018-06-11T06:09:01.142Z,55.27
2018-06-11T06:11:33.582Z,54.20
2018-06-11T06:14:05.848Z,54.63
2018-06-11T06:16:37.279Z,54.85
2018-06-11T06:19:08.813Z,54.03
2018-06-11T06:21:41.510Z,53.80
2018-06-11T06:24:13.506Z,55.53
2018-06-11T06:26:46.224Z,54.20
2018-06-11T06:29:19.029Z,53.97
2018-06-11T06:31:51.119Z,53.03
2018-06-11T06:34:23.714Z,54.33
2018-06-11T06:36:56.116Z,50.88
2018-06-11T06:39:28.572Z,52.43
2018-06-11T06:42:00.728Z,52.23
2018-06-11T06:44:32.114Z,51.83
2018-06-11T06:47:03.548Z,56.23
2018-06-11T06:49:36.360Z,51.45
2018-06-11T06:52:09.156Z,53.10
2018-06-11T06:54:40.715Z,51.17
2018-06-11T06:57:13.405Z,50.55
2018-06-11T06:59:46.454Z,50.58
2018-06-11T07:02:18.366Z,49.90
2018-06-11T07:04:50.868Z,50.52
2018-06-11T07:07:23.528Z,49.70
2018-06-11T07:09:56.448Z,49.98
2018-06-11T07:12:28.424Z,49.45
2018-06-11T07:15:00.374Z,49.53
2018-06-11T07:17:33.451Z,49.03
2018-06-11T07:20:06.186Z,47.62
2018-06-11T07:22:38.168Z,48.02
2018-06-11T07:25:10.232Z,46.73
2018-06-11T07:27:43.000Z,44.75
2018-06-11T07:30:15.655Z,46.35
2018-06-11T07:32:47.514Z,45.43
2018-06-11T07:35:20.220Z,42.95
2018-06-11T07:37:53.607Z,41.58
2018-06-11T07:40:26.880Z,42.03
2018-06-11T07:42:59.848Z,41.68
2018-06-11T07:45:32.191Z,42.13
2018-06-11T07:48:05.033Z,40.28
2018-06-11T07:50:37.300Z,38.28
2018-06-11T07:53:09.624Z,38.38
2018-06-11T07:55:42.266Z,37.35
2018-06-11T07:58:14.616Z,38.67
2018-06-11T08:00:46.570Z,37.33
2018-06-11T08:03:19.828Z,39.65
2018-06-11T08:05:52.386Z,40.15
2018-06-11T08:08:24.408Z,38.80
2018-06-11T08:10:56.672Z,38.00
2018-06-11T08:13:29.202Z,35.90
2018-06-11T08:16:02.617Z,37.13
2018-06-11T08:18:34.905Z,36.85
2018-06-11T08:21:07.388Z,38.92
2018-06-11T08:23:40.072Z,39.33
2018-06-11T08:26:12.446Z,38.63
2018-06-11T08:28:44.316Z,39.55
2018-06-11T08:31:17.140Z,39.75
2018-06-11T08:33:49.739Z,38.90
2018-06-11T08:36:23.116Z,40.35
2018-06-11T08:38:55.123Z,40.48
2018-06-11T08:41:28.123Z,44.50
2018-06-11T08:44:00.822Z,45.30
2018-06-11T08:46:32.902Z,46.92
2018-06-11T08:49:05.236Z,44.70
2018-06-11T08:51:37.608Z,42.45
2018-06-11T08:54:10.426Z,41.20
2018-06-11T08:56:42.498Z,40.50
2018-06-11T08:59:15.452Z,41.63
2018-06-11T09:01:48.744Z,42.62
2018-06-11T09:04:20.802Z,40.63
2018-06-11T09:06:52.882Z,38.17
2018-06-11T09:09:25.445Z,34.98
2018-06-11T09:11:58.298Z,36.85
2018-06-11T09:14:30.484Z,34.78
2018-06-11T09:17:03.930Z,35.17
2018-06-11T09:19:39.977Z,34.38
2018-06-11T09:22:12.338Z,35.75
2018-06-11T09:24:44.798Z,34.08
2018-06-11T09:27:17.635Z,34.13
2018-06-11T09:29:50.526Z,34.48
2018-06-11T09:32:22.718Z,32.88
2018-06-11T09:34:54.888Z,32.58
2018-06-11T09:37:27.632Z,30.95
2018-06-11T09:40:01.208Z,30.05
2018-06-11T09:42:32.927Z,31.95
2018-06-11T09:45:05.096Z,33.08
2018-06-11T09:47:37.946Z,32.20
2018-06-11T09:50:13.157Z,34.23
2018-06-11T09:52:45.180Z,34.83
2018-06-11T09:55:17.105Z,35.33
2018-06-11T09:57:49.733Z,33.58
2018-06-11T10:00:26.965Z,32.20
2018-06-11T10:02:58.967Z,36.40
2018-06-11T10:05:31.508Z,34.60
2018-06-11T10:08:05.391Z,34.45
2018-06-11T10:10:38.546Z,35.03
2018-06-11T10:13:14.924Z,34.40
2018-06-11T10:15:48.218Z,34.25
2018-06-11T10:18:20.226Z,35.33
2018-06-11T10:20:52.645Z,34.58
2018-06-11T10:23:25.738Z,33.13
2018-06-11T10:25:58.344Z,36.93
2018-06-11T10:28:30.287Z,34.45
2018-06-11T10:31:02.326Z,35.17
2018-06-11T10:33:35.023Z,36.20
2018-06-11T10:36:07.731Z,35.92
2018-06-11T10:38:39.694Z,34.83
2018-06-11T10:41:11.463Z,36.05
2018-06-11T10:43:44.097Z,34.65
2018-06-11T10:46:16.296Z,35.20
2018-06-11T10:48:49.802Z,34.80
2018-06-11T10:51:22.996Z,35.17
2018-06-11T10:53:55.374Z,37.50
2018-06-11T10:56:27.869Z,34.95
2018-06-11T10:58:59.894Z,35.50
2018-06-11T11:01:32.539Z,36.63
2018-06-11T11:04:05.221Z,34.60
2018-06-11T11:06:37.089Z,35.90
2018-06-11T11:09:09.172Z,37.63
2018-06-11T11:11:41.930Z,36.42
2018-06-11T11:14:14.810Z,35.43
2018-06-11T11:16:47.366Z,37.28
2018-06-11T11:19:20.149Z,37.48
2018-06-11T11:21:53.361Z,36.08
2018-06-11T11:24:25.544Z,37.45
2018-06-11T11:26:58.866Z,36.40
2018-06-11T11:29:32.073Z,36.10
2018-06-11T11:32:05.726Z,35.58
2018-06-11T11:34:37.822Z,36.03
2018-06-11T11:37:09.631Z,35.50
2018-06-11T11:39:42.200Z,35.33
2018-06-11T11:42:14.820Z,32.83
2018-06-11T11:44:46.868Z,34.30
2018-06-11T11:47:19.908Z,36.08
2018-06-11T11:49:52.568Z,34.98
2018-06-11T11:52:24.613Z,33.50
2018-06-11T11:54:56.573Z,32.03
2018-06-11T11:57:29.778Z,31.33
2018-06-11T12:00:02.797Z,31.62
2018-06-11T12:02:34.791Z,32.50
2018-06-11T12:05:06.901Z,31.50
2018-06-11T12:07:39.768Z,31.35
2018-06-11T12:10:12.095Z,31.68
2018-06-11T12:12:44.539Z,30.55
2018-06-11T12:15:17.196Z,30.85
2018-06-11T12:17:49.932Z,29.42
2018-06-11T12:20:21.937Z,31.82
2018-06-11T12:22:54.051Z,31.33
2018-06-11T12:25:26.833Z,27.48
2018-06-11T12:27:59.616Z,29.45
2018-06-11T12:30:31.740Z,27.15
2018-06-11T12:33:03.599Z,28.90
2018-06-11T12:35:36.827Z,27.10
2018-06-11T12:38:09.949Z,27.75
2018-06-11T12:40:42.039Z,27.48
2018-06-11T12:43:14.040Z,25.97
2018-06-11T12:45:46.974Z,28.75
2018-06-11T12:48:18.979Z,28.87
2018-06-11T12:50:51.482Z,29.45
2018-06-11T12:53:24.261Z,29.23
2018-06-11T12:55:56.720Z,27.98
2018-06-11T12:58:28.590Z,27.80
2018-06-11T13:01:00.609Z,28.30
2018-06-11T13:03:33.276Z,28.00
2018-06-11T13:06:07.346Z,28.75
2018-06-11T13:08:40.631Z,27.25
2018-06-11T13:11:13.877Z,26.75
2018-06-11T13:13:46.628Z,26.30
2018-06-11T13:16:19.769Z,27.70
2018-06-11T13:18:52.206Z,27.75
2018-06-11T13:21:24.954Z,27.00
2018-06-11T13:23:57.558Z,28.30
2018-06-11T13:26:29.691Z,29.48
2018-06-11T13:29:01.907Z,29.70
2018-06-11T13:31:34.670Z,28.50
2018-06-11T13:34:07.266Z,27.07
2018-06-11T13:36:39.230Z,27.82
2018-06-11T13:39:11.298Z,26.48
2018-06-11T13:41:44.169Z,28.52
2018-06-11T13:44:16.202Z,27.90
2018-06-11T13:46:48.614Z,28.32
2018-06-11T13:49:21.636Z,27.00
2018-06-11T13:51:54.900Z,28.10
2018-06-11T13:54:26.101Z,29.23
2018-06-11T13:56:58.251Z,27.90
2018-06-11T13:59:31.398Z,26.80
2018-06-11T14:02:04.322Z,27.73
2018-06-11T14:04:37.582Z,26.62
2018-06-11T14:07:09.584Z,25.75
2018-06-11T14:09:42.054Z,26.45
2018-06-11T14:12:14.840Z,27.22
2018-06-11T14:14:46.837Z,26.10
2018-06-11T14:17:19.550Z,26.35
2018-06-11T14:19:53.643Z,25.85
2018-06-11T14:22:51.325Z,26.27
2018-06-11T14:25:24.908Z,25.57
2018-06-11T14:27:58.600Z,26.05
2018-06-11T14:30:30.491Z,25.80
2018-06-11T14:33:03.719Z,26.97
2018-06-11T14:35:36.450Z,26.95
2018-06-11T14:38:09.943Z,27.93
2018-06-11T14:40:41.782Z,27.05
2018-06-11T14:43:13.820Z,26.17
2018-06-11T14:45:46.496Z,25.82
2018-06-11T14:48:19.202Z,28.10
2018-06-11T14:50:51.077Z,27.27
2018-06-11T14:53:24.353Z,27.13
2018-06-11T14:55:58.751Z,28.95
2018-06-11T14:58:30.796Z,28.12
2018-06-11T15:01:03.362Z,27.85
2018-06-11T15:03:35.988Z,27.50
2018-06-11T15:06:09.318Z,27.67
2018-06-11T15:08:41.984Z,25.70
2018-06-11T15:11:13.896Z,31.45
2018-06-11T15:13:47.070Z,27.37
2018-06-11T15:16:19.648Z,27.67
2018-06-11T15:18:52.469Z,28.83
2018-06-11T15:21:28.719Z,28.98
2018-06-11T15:24:24.238Z,31.27
2018-06-11T15:27:19.049Z,29.35
2018-06-11T15:29:54.220Z,28.17
2018-06-11T15:32:26.318Z,29.35
2018-06-11T15:34:59.592Z,28.20
2018-06-11T15:37:32.688Z,28.92
2018-06-11T15:40:05.780Z,29.67
2018-06-11T15:42:37.838Z,29.63
2018-06-11T15:45:10.671Z,29.32
2018-06-11T15:47:43.810Z,29.67
2018-06-11T15:50:16.220Z,29.02
2018-06-11T15:52:49.539Z,29.80
2018-06-11T15:55:22.489Z,29.85
2018-06-11T15:57:56.766Z,31.23
2018-06-11T16:00:29.236Z,29.45
2018-06-11T16:03:02.159Z,30.85
2018-06-11T16:05:35.588Z,29.45
2018-06-11T16:08:08.748Z,32.25
2018-06-11T16:10:41.835Z,33.25
2018-06-11T16:13:13.867Z,30.70
2018-06-11T16:15:47.030Z,32.45
2018-06-11T16:18:20.708Z,33.40
2018-06-11T16:20:53.685Z,29.82
2018-06-11T16:23:26.729Z,33.23
2018-06-11T16:25:59.981Z,32.88
2018-06-11T16:28:32.038Z,32.30
2018-06-11T16:31:05.297Z,33.78
2018-06-11T16:33:38.464Z,31.60
2018-06-11T16:36:11.125Z,31.57
2018-06-11T16:38:43.206Z,32.58
2018-06-11T16:41:15.837Z,32.03
2018-06-11T16:43:49.224Z,31.60
2018-06-11T16:46:23.780Z,30.92
2018-06-11T16:48:56.046Z,30.85
2018-06-11T16:51:29.413Z,30.70
2018-06-11T16:54:02.750Z,34.67
2018-06-11T16:56:34.885Z,32.35
2018-06-11T16:59:06.840Z,30.80
2018-06-11T17:01:39.647Z,31.77
2018-06-11T17:04:11.876Z,33.35
2018-06-11T17:06:45.072Z,33.55
2018-06-11T17:09:18.033Z,32.83
2018-06-11T17:11:50.640Z,33.98
2018-06-11T17:14:22.695Z,33.48
2018-06-11T17:16:54.550Z,31.80
2018-06-11T17:19:27.339Z,31.82
2018-06-11T17:21:59.934Z,33.13
2018-06-11T17:24:31.821Z,32.33
2018-06-11T17:27:03.725Z,34.08
2018-06-11T17:29:36.326Z,34.45
2018-06-11T17:32:10.063Z,35.50
2018-06-11T17:34:43.271Z,34.20
2018-06-11T17:37:17.138Z,33.88
2018-06-11T17:39:49.792Z,38.10
2018-06-11T17:42:22.376Z,37.93
2018-06-11T17:44:54.648Z,35.55
2018-06-11T17:47:27.480Z,37.15
2018-06-11T17:50:00.208Z,36.63
2018-06-11T17:52:33.578Z,36.58
2018-06-11T17:55:05.732Z,36.63
2018-06-11T17:57:38.453Z,36.93
2018-06-11T18:00:11.954Z,34.20
2018-06-11T18:02:45.740Z,35.83
2018-06-11T18:05:18.747Z,35.43
2018-06-11T18:07:51.626Z,34.23
2018-06-11T18:10:23.748Z,35.17
2018-06-11T18:12:56.370Z,31.65
2018-06-11T18:15:29.106Z,33.53
2018-06-11T18:18:01.899Z,32.20
2018-06-11T18:20:34.473Z,29.67
2018-06-11T18:23:06.834Z,28.92
2018-06-11T18:25:44.692Z,31.70
2018-06-11T18:28:16.864Z,30.75
2018-06-11T18:30:48.776Z,30.35
2018-06-11T18:33:21.515Z,31.12
2018-06-11T18:35:54.349Z,31.02
2018-06-11T18:38:26.572Z,29.75
2018-06-11T18:40:59.980Z,29.80
2018-06-11T18:43:32.494Z,31.07
2018-06-11T18:46:07.678Z,30.10
2018-06-11T18:48:39.860Z,30.77
2018-06-11T18:51:12.074Z,28.55
2018-06-11T18:53:44.948Z,28.20
2018-06-11T18:56:17.146Z,26.62
2018-06-11T18:58:49.324Z,27.62
2018-06-11T19:01:21.502Z,28.27
2018-06-11T19:03:54.471Z,28.07
2018-06-11T19:06:26.444Z,28.38
2018-06-11T19:08:58.631Z,28.85
2018-06-11T19:11:34.992Z,27.52
2018-06-11T19:14:08.204Z,28.52
2018-06-11T19:16:40.603Z,27.15
2018-06-11T19:19:13.156Z,27.00
2018-06-11T19:21:45.698Z,26.97
2018-06-11T19:24:18.131Z,26.68
2018-06-11T19:26:50.318Z,27.10
2018-06-11T19:29:23.360Z,28.85
2018-06-11T19:31:56.481Z,28.40
2018-06-11T19:34:28.517Z,26.90
2018-06-11T19:37:00.413Z,26.52
2018-06-11T19:39:33.353Z,25.68
2018-06-11T19:42:06.396Z,25.97
2018-06-11T19:44:38.854Z,25.45
2018-06-11T19:47:10.794Z,25.72
2018-06-11T19:49:43.450Z,25.65
2018-06-11T19:52:15.762Z,27.32
2018-06-11T19:54:47.900Z,28.40
2018-06-11T19:57:21.706Z,27.70
2018-06-11T19:59:54.968Z,26.87
2018-06-11T20:02:27.232Z,26.00
2018-06-11T20:04:59.278Z,23.02
2018-06-11T20:07:32.581Z,24.82
2018-06-11T20:10:05.426Z,23.45
2018-06-11T20:12:37.716Z,21.68
2018-06-11T20:15:09.857Z,22.27
2018-06-11T20:17:42.527Z,21.37
2018-06-11T20:20:15.362Z,21.00
2018-06-11T20:22:48.586Z,20.85
2018-06-11T20:25:22.126Z,20.45
2018-06-11T20:27:54.784Z,18.52
2018-06-11T20:30:26.881Z,18.98
2018-06-11T20:32:58.823Z,20.43
2018-06-11T20:35:31.518Z,18.05
2018-06-11T20:38:04.470Z,19.10
2018-06-11T20:40:36.507Z,19.20
2018-06-11T20:43:08.502Z,19.20
2018-06-11T20:45:41.153Z,20.23
2018-06-11T20:48:16.707Z,20.20
2018-06-11T20:50:48.809Z,20.88
2018-06-11T20:53:22.090Z,19.75
2018-06-11T20:55:54.294Z,20.80
2018-06-11T20:58:26.834Z,20.35
2018-06-11T21:00:59.101Z,22.67
2018-06-11T21:03:32.099Z,21.95
2018-06-11T21:06:05.797Z,21.30
2018-06-11T21:08:37.699Z,22.00
2018-06-11T21:11:09.602Z,22.67
2018-06-11T21:13:42.289Z,21.10
2018-06-11T21:16:15.061Z,20.65
2018-06-11T21:18:46.981Z,21.00
2018-06-11T21:21:19.618Z,22.02
2018-06-11T21:23:52.399Z,21.40
2018-06-11T21:26:24.405Z,21.50
2018-06-11T21:28:56.305Z,21.37
2018-06-11T21:31:29.841Z,20.97
2018-06-11T21:34:02.632Z,20.48
2018-06-11T21:36:34.715Z,20.02
2018-06-11T21:39:08.808Z,18.82
2018-06-11T21:41:41.331Z,18.62
2018-06-11T21:44:14.280Z,17.77
2018-06-11T21:46:46.063Z,18.15
2018-06-11T21:49:18.707Z,18.05
2018-06-11T21:51:51.235Z,15.83
2018-06-11T21:54:23.058Z,15.00
2018-06-11T21:56:54.942Z,14.90
2018-06-11T21:59:28.722Z,14.28
2018-06-11T22:02:01.541Z,14.30
2018-06-11T22:04:33.218Z,14.35
2018-06-11T22:07:06.385Z,14.07
2018-06-11T22:09:38.762Z,13.30
2018-06-11T22:12:10.988Z,14.30
2018-06-11T22:14:42.320Z,14.00
2018-06-11T22:17:13.688Z,14.90
2018-06-11T22:19:45.971Z,14.93
2018-06-11T22:22:17.929Z,15.60
2018-06-11T22:24:49.987Z,17.17
2018-06-11T22:27:21.991Z,17.77
2018-06-11T22:29:54.434Z,18.60
2018-06-11T22:32:25.756Z,18.80
2018-06-11T22:34:56.924Z,19.33
2018-06-11T22:37:28.984Z,18.43
2018-06-11T22:40:01.096Z,19.63
2018-06-11T22:42:32.365Z,18.80
2018-06-11T22:45:04.189Z,18.80
2018-06-11T22:47:36.292Z,18.13
2018-06-11T22:50:08.290Z,18.67
2018-06-11T22:52:40.109Z,21.93
2018-06-11T22:55:11.438Z,21.03
2018-06-11T22:57:43.556Z,23.83
2018-06-11T23:00:25.079Z,25.03
2018-06-11T23:02:55.977Z,24.70
2018-06-11T23:05:28.163Z,24.13
2018-06-11T23:08:00.142Z,24.37
2018-06-11T23:10:31.349Z,25.10
2018-06-11T23:13:02.594Z,26.50
2018-06-11T23:15:34.646Z,24.40
2018-06-11T23:18:06.905Z,23.70
2018-06-11T23:20:38.384Z,23.53
2018-06-11T23:23:09.765Z,25.63
2018-06-11T23:25:41.704Z,26.53
2018-06-11T23:28:14.272Z,28.87
2018-06-11T23:30:45.511Z,25.63
2018-06-11T23:33:17.506Z,26.50
2018-06-11T23:35:49.362Z,27.33
2018-06-11T23:38:20.705Z,27.30
2018-06-11T23:40:51.912Z,23.73
2018-06-11T23:43:24.512Z,22.17
2018-06-11T23:45:56.622Z,23.40
2018-06-11T23:48:27.928Z,25.03
2018-06-11T23:50:59.306Z,27.23
2018-06-11T23:53:31.334Z,27.20
2018-06-11T23:56:03.139Z,27.13
2018-06-11T23:58:34.541Z,26.27
